BAW4CD EICK-EGJJ
Flight info
| Callsign | BAW4CD |
|---|---|
| Flight time | 0h 50m |
| Altitude | 23000 |
| Route | ERTER1S ERTER DCT LEDGO N160 EVCOR DCT NAKID DCT LIZAD/N0394F190 N160 TUNIT |
| Aircraft | A319/M-SDE3FGHIRWY/LB1 |
Departure
| Time | 2026-05-06 11:08 |
|---|---|
| Airport | Cork International Airport (EICK) |
Arrival
| Time | 2026-05-06 11:58 |
|---|---|
| Airport | Jersey Airport (EGJJ) |
| Time | Latitude | Longitude | Altitude | Speed | Heading |
|---|---|---|---|---|---|
| 2026-05-06 10:58 | 51.84846 | -8.49055 | 513 ft | 0 kts | 70° |
| 2026-05-06 10:59 | 51.84840 | -8.49081 | 512 ft | 3 kts | 70° |
| 2026-05-06 11:00 | 51.84835 | -8.49121 | 510 ft | 3 kts | 98° |
| 2026-05-06 11:00 | 51.84849 | -8.49153 | 509 ft | 3 kts | 152° |
| 2026-05-06 11:00 | 51.84855 | -8.49157 | 509 ft | 0 kts | 164° |
| 2026-05-06 11:02 | 51.84848 | -8.49154 | 509 ft | 1 kts | 164° |
| 2026-05-06 11:02 | 51.84829 | -8.49149 | 509 ft | 4 kts | 178° |
| 2026-05-06 11:03 | 51.84784 | -8.49163 | 506 ft | 9 kts | 193° |
| 2026-05-06 11:03 | 51.84705 | -8.49164 | 503 ft | 13 kts | 172° |
| 2026-05-06 11:03 | 51.84609 | -8.49113 | 500 ft | 15 kts | 160° |
| 2026-05-06 11:03 | 51.84500 | -8.49049 | 497 ft | 17 kts | 160° |
| 2026-05-06 11:04 | 51.84375 | -8.48987 | 493 ft | 19 kts | 185° |
| 2026-05-06 11:04 | 51.84301 | -8.49170 | 487 ft | 21 kts | 225° |
| 2026-05-06 11:04 | 51.84170 | -8.49138 | 482 ft | 19 kts | 160° |
| 2026-05-06 11:04 | 51.84034 | -8.49055 | 477 ft | 21 kts | 160° |
| 2026-05-06 11:05 | 51.83886 | -8.48968 | 473 ft | 23 kts | 161° |
| 2026-05-06 11:05 | 51.83734 | -8.48878 | 470 ft | 23 kts | 160° |
| 2026-05-06 11:05 | 51.83578 | -8.48786 | 469 ft | 23 kts | 160° |
| 2026-05-06 11:05 | 51.83429 | -8.48697 | 469 ft | 22 kts | 161° |
| 2026-05-06 11:06 | 51.83302 | -8.48574 | 468 ft | 19 kts | 122° |
| 2026-05-06 11:06 | 51.83260 | -8.48575 | 467 ft | 7 kts | 305° |
| 2026-05-06 11:06 | 51.83284 | -8.48609 | 468 ft | 0 kts | 341° |
| 2026-05-06 11:07 | 51.83297 | -8.48617 | 468 ft | 17 kts | 340° |
| 2026-05-06 11:07 | 51.83654 | -8.48832 | 469 ft | 91 kts | 340° |
| 2026-05-06 11:07 | 51.84448 | -8.49304 | 492 ft | 149 kts | 339° |
| 2026-05-06 11:07 | 51.85450 | -8.49907 | 989 ft | 155 kts | 340° |
| 2026-05-06 11:08 | 51.86442 | -8.50502 | 1655 ft | 153 kts | 340° |
| 2026-05-06 11:08 | 51.87442 | -8.50950 | 2282 ft | 152 kts | 0° |
| 2026-05-06 11:08 | 51.88459 | -8.50475 | 2696 ft | 160 kts | 39° |
| 2026-05-06 11:08 | 51.89073 | -8.48958 | 3052 ft | 173 kts | 79° |
| 2026-05-06 11:09 | 51.88940 | -8.47004 | 3516 ft | 183 kts | 116° |
| 2026-05-06 11:09 | 51.88000 | -8.45603 | 3870 ft | 202 kts | 160° |
| 2026-05-06 11:09 | 51.86603 | -8.44907 | 4328 ft | 219 kts | 158° |
| 2026-05-06 11:09 | 51.85328 | -8.43429 | 4813 ft | 237 kts | 133° |
| 2026-05-06 11:10 | 51.84221 | -8.41352 | 5346 ft | 255 kts | 131° |
| 2026-05-06 11:10 | 51.83004 | -8.39146 | 5955 ft | 271 kts | 134° |
| 2026-05-06 11:10 | 51.81679 | -8.36955 | 6825 ft | 276 kts | 136° |
| 2026-05-06 11:10 | 51.80309 | -8.34836 | 7729 ft | 279 kts | 137° |
| 2026-05-06 11:11 | 51.78882 | -8.32716 | 8622 ft | 282 kts | 138° |
| 2026-05-06 11:11 | 51.77426 | -8.30608 | 9470 ft | 286 kts | 139° |
| 2026-05-06 11:11 | 51.75935 | -8.28481 | 10288 ft | 290 kts | 139° |
| 2026-05-06 11:11 | 51.74396 | -8.26302 | 10854 ft | 303 kts | 139° |
| 2026-05-06 11:12 | 51.72766 | -8.24010 | 11257 ft | 321 kts | 139° |
| 2026-05-06 11:12 | 51.71046 | -8.21601 | 11629 ft | 339 kts | 139° |
| 2026-05-06 11:12 | 51.69229 | -8.19062 | 12090 ft | 352 kts | 139° |
| 2026-05-06 11:12 | 51.67376 | -8.16477 | 12794 ft | 357 kts | 139° |
| 2026-05-06 11:13 | 51.65518 | -8.13888 | 13534 ft | 360 kts | 139° |
| 2026-05-06 11:13 | 51.63618 | -8.11245 | 14239 ft | 364 kts | 139° |
| 2026-05-06 11:13 | 51.61706 | -8.08587 | 14912 ft | 368 kts | 140° |
| 2026-05-06 11:13 | 51.59760 | -8.05887 | 15569 ft | 372 kts | 140° |
| 2026-05-06 11:14 | 51.57792 | -8.03159 | 16209 ft | 376 kts | 140° |
| 2026-05-06 11:14 | 51.55820 | -8.00428 | 16826 ft | 380 kts | 140° |
| 2026-05-06 11:14 | 51.53805 | -7.97645 | 17441 ft | 384 kts | 139° |
| 2026-05-06 11:14 | 51.51788 | -7.94857 | 17874 ft | 393 kts | 140° |
| 2026-05-06 11:15 | 51.49701 | -7.91979 | 18358 ft | 399 kts | 140° |
| 2026-05-06 11:15 | 51.47602 | -7.89085 | 18948 ft | 402 kts | 140° |
| 2026-05-06 11:15 | 51.45484 | -7.86169 | 19524 ft | 405 kts | 140° |
| 2026-05-06 11:15 | 51.43341 | -7.83225 | 20083 ft | 408 kts | 140° |
| 2026-05-06 11:16 | 51.41179 | -7.80255 | 20595 ft | 412 kts | 140° |
| 2026-05-06 11:16 | 51.39003 | -7.77271 | 21097 ft | 416 kts | 140° |
| 2026-05-06 11:16 | 51.36802 | -7.74257 | 21600 ft | 419 kts | 140° |
| 2026-05-06 11:16 | 51.34574 | -7.71210 | 22076 ft | 423 kts | 140° |
| 2026-05-06 11:17 | 51.32336 | -7.68153 | 22539 ft | 427 kts | 140° |
| 2026-05-06 11:17 | 51.30096 | -7.65098 | 22990 ft | 430 kts | 140° |
| 2026-05-06 11:17 | 51.27819 | -7.61998 | 23421 ft | 434 kts | 140° |
| 2026-05-06 11:17 | 51.25507 | -7.58854 | 23859 ft | 437 kts | 140° |
| 2026-05-06 11:18 | 51.23250 | -7.55675 | 24285 ft | 441 kts | 137° |
| 2026-05-06 11:18 | 51.21020 | -7.52318 | 24733 ft | 443 kts | 137° |
| 2026-05-06 11:18 | 51.18766 | -7.48919 | 25181 ft | 446 kts | 137° |
| 2026-05-06 11:18 | 51.16527 | -7.45545 | 25608 ft | 449 kts | 137° |
| 2026-05-06 11:19 | 51.14246 | -7.42112 | 26026 ft | 451 kts | 137° |
| 2026-05-06 11:19 | 51.11991 | -7.38724 | 26437 ft | 454 kts | 137° |
| 2026-05-06 11:19 | 51.09697 | -7.35281 | 26842 ft | 456 kts | 137° |
| 2026-05-06 11:19 | 51.07365 | -7.31785 | 27235 ft | 459 kts | 137° |
| 2026-05-06 11:20 | 51.05037 | -7.28302 | 27614 ft | 462 kts | 137° |
| 2026-05-06 11:20 | 51.02694 | -7.24800 | 27990 ft | 464 kts | 138° |
| 2026-05-06 11:20 | 51.00364 | -7.21325 | 28369 ft | 466 kts | 138° |
| 2026-05-06 11:20 | 50.98001 | -7.17804 | 28860 ft | 465 kts | 138° |
| 2026-05-06 11:21 | 50.95683 | -7.14245 | 29387 ft | 463 kts | 135° |
| 2026-05-06 11:21 | 50.93506 | -7.10541 | 29883 ft | 462 kts | 132° |
| 2026-05-06 11:21 | 50.91461 | -7.06645 | 30366 ft | 461 kts | 129° |
| 2026-05-06 11:21 | 50.89538 | -7.02596 | 30834 ft | 460 kts | 127° |
| 2026-05-06 11:22 | 50.87639 | -6.98539 | 31270 ft | 459 kts | 127° |
| 2026-05-06 11:22 | 50.85751 | -6.94511 | 31698 ft | 458 kts | 127° |
| 2026-05-06 11:22 | 50.83849 | -6.90464 | 32112 ft | 458 kts | 127° |
| 2026-05-06 11:22 | 50.81963 | -6.86458 | 32508 ft | 457 kts | 127° |
| 2026-05-06 11:23 | 50.80077 | -6.82462 | 32900 ft | 456 kts | 127° |
| 2026-05-06 11:23 | 50.78194 | -6.78479 | 33274 ft | 456 kts | 127° |
| 2026-05-06 11:23 | 50.76283 | -6.74444 | 33610 ft | 457 kts | 127° |
| 2026-05-06 11:23 | 50.74382 | -6.70437 | 33896 ft | 458 kts | 127° |
| 2026-05-06 11:24 | 50.72492 | -6.66462 | 34157 ft | 460 kts | 127° |
| 2026-05-06 11:24 | 50.70567 | -6.62417 | 34421 ft | 461 kts | 127° |
| 2026-05-06 11:24 | 50.68635 | -6.58367 | 34708 ft | 462 kts | 127° |
| 2026-05-06 11:24 | 50.66726 | -6.54369 | 34961 ft | 463 kts | 127° |
| 2026-05-06 11:25 | 50.64780 | -6.50298 | 35011 ft | 464 kts | 127° |
| 2026-05-06 11:25 | 50.60914 | -6.42234 | 35022 ft | 464 kts | 127° |
| 2026-05-06 11:26 | 50.57021 | -6.34136 | 35017 ft | 465 kts | 128° |
| 2026-05-06 11:26 | 50.53114 | -6.26037 | 35015 ft | 464 kts | 128° |
| 2026-05-06 11:27 | 50.49242 | -6.18037 | 35014 ft | 464 kts | 128° |
| 2026-05-06 11:27 | 50.45342 | -6.10000 | 35011 ft | 464 kts | 128° |
| 2026-05-06 11:28 | 50.41424 | -6.01952 | 35014 ft | 463 kts | 128° |
| 2026-05-06 11:28 | 50.37546 | -5.94010 | 35012 ft | 463 kts | 128° |
| 2026-05-06 11:29 | 50.33616 | -5.85987 | 35013 ft | 463 kts | 128° |
| 2026-05-06 11:29 | 50.29702 | -5.78021 | 35015 ft | 463 kts | 128° |
| 2026-05-06 11:30 | 50.25790 | -5.70083 | 35010 ft | 463 kts | 128° |
| 2026-05-06 11:30 | 50.21891 | -5.62194 | 35014 ft | 463 kts | 128° |
| 2026-05-06 11:31 | 50.17958 | -5.54260 | 35011 ft | 463 kts | 128° |
| 2026-05-06 11:31 | 50.14029 | -5.46356 | 35007 ft | 463 kts | 128° |
| 2026-05-06 11:32 | 50.10083 | -5.38447 | 35003 ft | 462 kts | 128° |
| 2026-05-06 11:32 | 50.06155 | -5.30592 | 34999 ft | 462 kts | 128° |
| 2026-05-06 11:33 | 50.02218 | -5.22747 | 34794 ft | 462 kts | 128° |
| 2026-05-06 11:33 | 50.00244 | -5.18823 | 34526 ft | 459 kts | 128° |
| 2026-05-06 11:33 | 49.98283 | -5.14929 | 34257 ft | 457 kts | 128° |
| 2026-05-06 11:33 | 49.96345 | -5.11084 | 33993 ft | 454 kts | 128° |
| 2026-05-06 11:34 | 49.94400 | -5.07233 | 33726 ft | 452 kts | 128° |
| 2026-05-06 11:34 | 49.92467 | -5.03410 | 33393 ft | 452 kts | 128° |
| 2026-05-06 11:34 | 49.90526 | -4.99578 | 32917 ft | 453 kts | 128° |
| 2026-05-06 11:34 | 49.88584 | -4.95750 | 32330 ft | 453 kts | 128° |
| 2026-05-06 11:35 | 49.86651 | -4.91944 | 31671 ft | 454 kts | 128° |
| 2026-05-06 11:35 | 49.84690 | -4.88088 | 30952 ft | 455 kts | 128° |
| 2026-05-06 11:35 | 49.82763 | -4.84305 | 30215 ft | 456 kts | 128° |
| 2026-05-06 11:35 | 49.80793 | -4.80440 | 29432 ft | 458 kts | 128° |
| 2026-05-06 11:36 | 49.78841 | -4.76620 | 28581 ft | 461 kts | 128° |
| 2026-05-06 11:36 | 49.76835 | -4.72698 | 27723 ft | 463 kts | 128° |
| 2026-05-06 11:36 | 49.74868 | -4.68860 | 27130 ft | 459 kts | 128° |
| 2026-05-06 11:36 | 49.72897 | -4.65016 | 26587 ft | 453 kts | 128° |
| 2026-05-06 11:37 | 49.71034 | -4.61139 | 26066 ft | 448 kts | 125° |
| 2026-05-06 11:37 | 49.69325 | -4.57207 | 25548 ft | 443 kts | 123° |
| 2026-05-06 11:37 | 49.67653 | -4.53264 | 25032 ft | 438 kts | 123° |
| 2026-05-06 11:37 | 49.65990 | -4.49338 | 24509 ft | 434 kts | 123° |
| 2026-05-06 11:38 | 49.64370 | -4.45527 | 23993 ft | 430 kts | 123° |
| 2026-05-06 11:38 | 49.62735 | -4.41689 | 23459 ft | 426 kts | 123° |
| 2026-05-06 11:38 | 49.61129 | -4.37912 | 22942 ft | 422 kts | 121° |
| 2026-05-06 11:38 | 49.59706 | -4.33942 | 22433 ft | 419 kts | 115° |
| 2026-05-06 11:39 | 49.58625 | -4.29853 | 21957 ft | 414 kts | 108° |
| 2026-05-06 11:39 | 49.57848 | -4.25608 | 21481 ft | 410 kts | 103° |
| 2026-05-06 11:39 | 49.57202 | -4.21364 | 21002 ft | 407 kts | 102° |
| 2026-05-06 11:39 | 49.56583 | -4.17179 | 20530 ft | 404 kts | 102° |
| 2026-05-06 11:40 | 49.55962 | -4.12997 | 20061 ft | 401 kts | 102° |
| 2026-05-06 11:40 | 49.55336 | -4.08830 | 19580 ft | 399 kts | 103° |
| 2026-05-06 11:40 | 49.54711 | -4.04713 | 19103 ft | 397 kts | 103° |
| 2026-05-06 11:40 | 49.54082 | -4.00591 | 18626 ft | 395 kts | 103° |
| 2026-05-06 11:41 | 49.53454 | -3.96498 | 18147 ft | 393 kts | 103° |
| 2026-05-06 11:41 | 49.52827 | -3.92431 | 17661 ft | 391 kts | 103° |
| 2026-05-06 11:41 | 49.52200 | -3.88376 | 17176 ft | 389 kts | 103° |
| 2026-05-06 11:41 | 49.51581 | -3.84379 | 16692 ft | 388 kts | 103° |
| 2026-05-06 11:42 | 49.50954 | -3.80346 | 16213 ft | 386 kts | 103° |
| 2026-05-06 11:42 | 49.50335 | -3.76370 | 15736 ft | 383 kts | 103° |
| 2026-05-06 11:42 | 49.49715 | -3.72399 | 15259 ft | 381 kts | 103° |
| 2026-05-06 11:42 | 49.49097 | -3.68456 | 14770 ft | 380 kts | 103° |
| 2026-05-06 11:43 | 49.48487 | -3.64575 | 14287 ft | 378 kts | 103° |
| 2026-05-06 11:43 | 49.47872 | -3.60671 | 13790 ft | 376 kts | 103° |
| 2026-05-06 11:43 | 49.47255 | -3.56758 | 13296 ft | 375 kts | 103° |
| 2026-05-06 11:44 | 49.46035 | -3.49051 | 12303 ft | 372 kts | 103° |
| 2026-05-06 11:44 | 49.45422 | -3.45198 | 11805 ft | 370 kts | 103° |
| 2026-05-06 11:44 | 49.44821 | -3.41423 | 11312 ft | 369 kts | 103° |
| 2026-05-06 11:44 | 49.44215 | -3.37625 | 10876 ft | 365 kts | 103° |
| 2026-05-06 11:45 | 49.43614 | -3.33865 | 10620 ft | 355 kts | 103° |
| 2026-05-06 11:45 | 49.43040 | -3.30279 | 10474 ft | 343 kts | 103° |
| 2026-05-06 11:45 | 49.42477 | -3.26774 | 10325 ft | 332 kts | 103° |
| 2026-05-06 11:45 | 49.41934 | -3.23402 | 10168 ft | 322 kts | 103° |
| 2026-05-06 11:46 | 49.41405 | -3.20123 | 10034 ft | 312 kts | 103° |
| 2026-05-06 11:46 | 49.40887 | -3.16916 | 9822 ft | 305 kts | 103° |
| 2026-05-06 11:46 | 49.40388 | -3.13832 | 9561 ft | 301 kts | 103° |
| 2026-05-06 11:46 | 49.39885 | -3.10738 | 9298 ft | 296 kts | 103° |
| 2026-05-06 11:47 | 49.39386 | -3.07675 | 9034 ft | 292 kts | 103° |
| 2026-05-06 11:47 | 49.38902 | -3.04699 | 8778 ft | 288 kts | 103° |
| 2026-05-06 11:47 | 49.38405 | -3.01752 | 8513 ft | 284 kts | 106° |
| 2026-05-06 11:47 | 49.37738 | -2.98898 | 8215 ft | 283 kts | 112° |
| 2026-05-06 11:48 | 49.36893 | -2.96187 | 7902 ft | 282 kts | 116° |
| 2026-05-06 11:48 | 49.36010 | -2.93540 | 7579 ft | 281 kts | 116° |
| 2026-05-06 11:48 | 49.35120 | -2.90896 | 7275 ft | 279 kts | 116° |
| 2026-05-06 11:48 | 49.34249 | -2.88308 | 6955 ft | 271 kts | 116° |
| 2026-05-06 11:49 | 49.33395 | -2.85769 | 6519 ft | 263 kts | 116° |
| 2026-05-06 11:49 | 49.32577 | -2.83328 | 6101 ft | 254 kts | 116° |
| 2026-05-06 11:49 | 49.31789 | -2.80978 | 5703 ft | 246 kts | 116° |
| 2026-05-06 11:49 | 49.31018 | -2.78676 | 5305 ft | 240 kts | 116° |
| 2026-05-06 11:50 | 49.30271 | -2.76442 | 5061 ft | 236 kts | 116° |
| 2026-05-06 11:50 | 49.29524 | -2.74216 | 4808 ft | 233 kts | 115° |
| 2026-05-06 11:50 | 49.28794 | -2.72039 | 4561 ft | 231 kts | 115° |
| 2026-05-06 11:50 | 49.28056 | -2.69839 | 4304 ft | 230 kts | 116° |
| 2026-05-06 11:51 | 49.27333 | -2.67688 | 4090 ft | 227 kts | 115° |
| 2026-05-06 11:51 | 49.26610 | -2.65539 | 3853 ft | 226 kts | 116° |
| 2026-05-06 11:51 | 49.25893 | -2.63408 | 3553 ft | 227 kts | 116° |
| 2026-05-06 11:51 | 49.25173 | -2.61269 | 3254 ft | 228 kts | 116° |
| 2026-05-06 11:52 | 49.24441 | -2.59101 | 2953 ft | 230 kts | 116° |
| 2026-05-06 11:52 | 49.23706 | -2.56923 | 2652 ft | 231 kts | 116° |
| 2026-05-06 11:52 | 49.22974 | -2.54760 | 2354 ft | 232 kts | 116° |
| 2026-05-06 11:52 | 49.22245 | -2.52551 | 2069 ft | 233 kts | 115° |
| 2026-05-06 11:53 | 49.21527 | -2.50357 | 1989 ft | 224 kts | 115° |
| 2026-05-06 11:53 | 49.20852 | -2.48298 | 1983 ft | 211 kts | 115° |
| 2026-05-06 11:53 | 49.20215 | -2.46355 | 1979 ft | 199 kts | 115° |
| 2026-05-06 11:53 | 49.19611 | -2.44521 | 1975 ft | 189 kts | 115° |
| 2026-05-06 11:54 | 49.19173 | -2.42708 | 1958 ft | 177 kts | 94° |
| 2026-05-06 11:54 | 49.19183 | -2.40919 | 2030 ft | 159 kts | 85° |
| 2026-05-06 11:54 | 49.19260 | -2.39269 | 2005 ft | 155 kts | 86° |
| 2026-05-06 11:54 | 49.19304 | -2.37645 | 2002 ft | 154 kts | 87° |
| 2026-05-06 11:55 | 49.19338 | -2.36044 | 1983 ft | 144 kts | 85° |
| 2026-05-06 11:55 | 49.19428 | -2.34544 | 2008 ft | 138 kts | 84° |
| 2026-05-06 11:55 | 49.19534 | -2.33080 | 1866 ft | 139 kts | 84° |
| 2026-05-06 11:55 | 49.19639 | -2.31653 | 1682 ft | 130 kts | 84° |
| 2026-05-06 11:56 | 49.19738 | -2.30312 | 1496 ft | 126 kts | 84° |
| 2026-05-06 11:56 | 49.19836 | -2.28992 | 1337 ft | 125 kts | 84° |
| 2026-05-06 11:56 | 49.19935 | -2.27654 | 1183 ft | 125 kts | 84° |
| 2026-05-06 11:56 | 49.20038 | -2.26347 | 1032 ft | 125 kts | 81° |
| 2026-05-06 11:57 | 49.20243 | -2.25060 | 852 ft | 125 kts | 75° |
| 2026-05-06 11:57 | 49.20466 | -2.23791 | 660 ft | 124 kts | 78° |
| 2026-05-06 11:57 | 49.20593 | -2.22490 | 524 ft | 124 kts | 85° |
| 2026-05-06 11:57 | 49.20658 | -2.21181 | 345 ft | 123 kts | 84° |
| 2026-05-06 11:58 | 49.20763 | -2.19890 | 269 ft | 115 kts | 83° |
| 2026-05-06 11:58 | 49.20829 | -2.19142 | 275 ft | 23 kts | 79° |
| 2026-05-06 11:58 | 49.20799 | -2.19032 | 274 ft | 20 kts | 125° |
| 2026-05-06 11:58 | 49.20756 | -2.18900 | 271 ft | 13 kts | 114° |
| 2026-05-06 11:59 | 49.20700 | -2.18874 | 270 ft | 7 kts | 244° |
| 2026-05-06 11:59 | 49.20684 | -2.19020 | 269 ft | 16 kts | 264° |
| 2026-05-06 11:59 | 49.20676 | -2.19181 | 272 ft | 14 kts | 276° |
| 2026-05-06 11:59 | 49.20696 | -2.19328 | 275 ft | 13 kts | 283° |
| 2026-05-06 12:00 | 49.20704 | -2.19473 | 275 ft | 14 kts | 262° |
| 2026-05-06 12:00 | 49.20673 | -2.19631 | 272 ft | 16 kts | 227° |
| 2026-05-06 12:00 | 49.20581 | -2.19700 | 271 ft | 5 kts | 171° |
| 2026-05-06 12:00 | 49.20553 | -2.19699 | 271 ft | 0 kts | 173° |